createdAt,value
2017-01-06T00:00:17.246Z,0
2017-01-06T00:01:27.204Z,0
2017-01-06T00:02:37.545Z,0
2017-01-06T00:03:48.282Z,0
2017-01-06T00:04:59.039Z,0
2017-01-06T00:06:09.781Z,0
2017-01-06T00:07:20.136Z,0
2017-01-06T00:08:30.884Z,0
2017-01-06T00:09:41.612Z,0
2017-01-06T00:10:51.953Z,0
2017-01-06T00:12:02.681Z,0
2017-01-06T00:13:12.627Z,0
2017-01-06T00:14:22.580Z,0
2017-01-06T00:15:33.339Z,0
2017-01-06T00:16:43.311Z,0
2017-01-06T00:17:54.063Z,0
2017-01-06T00:19:04.784Z,0
2017-01-06T00:20:15.152Z,0
2017-01-06T00:21:25.886Z,0
2017-01-06T00:22:36.228Z,0
2017-01-06T00:23:46.593Z,0
2017-01-06T00:24:57.353Z,0
2017-01-06T00:26:08.086Z,0
2017-01-06T00:27:18.423Z,0
2017-01-06T00:28:29.170Z,0
2017-01-06T00:29:39.910Z,0
2017-01-06T00:30:50.642Z,0
2017-01-06T00:32:01.363Z,0
2017-01-06T00:33:11.706Z,0
2017-01-06T00:34:22.045Z,0
2017-01-06T00:35:32.381Z,0
2017-01-06T00:36:43.112Z,0
2017-01-06T00:37:53.434Z,0
2017-01-06T00:39:03.823Z,0
2017-01-06T00:40:14.182Z,0
2017-01-06T00:41:24.944Z,0
2017-01-06T00:42:35.684Z,0
2017-01-06T00:43:46.025Z,0
2017-01-06T00:44:56.362Z,0
2017-01-06T00:46:06.710Z,0
2017-01-06T00:47:17.065Z,0
2017-01-06T00:48:27.807Z,0
2017-01-06T00:49:38.147Z,0
2017-01-06T00:50:48.920Z,0
2017-01-06T00:51:59.265Z,0
2017-01-06T00:53:09.604Z,0
2017-01-06T00:54:20.343Z,0
2017-01-06T00:55:31.097Z,0
2017-01-06T00:56:41.034Z,0
2017-01-06T00:57:51.366Z,0
2017-01-06T00:59:01.717Z,0
2017-01-06T01:00:11.700Z,0
2017-01-06T01:01:22.042Z,0
2017-01-06T01:02:32.779Z,0
2017-01-06T01:03:43.117Z,0
2017-01-06T01:04:53.851Z,0
2017-01-06T01:06:04.590Z,0
2017-01-06T01:07:15.320Z,0
2017-01-06T01:08:26.056Z,0
2017-01-06T01:09:36.803Z,0
2017-01-06T01:10:47.546Z,0
2017-01-06T01:11:58.291Z,0
2017-01-06T01:13:07.843Z,0
2017-01-06T01:14:18.170Z,0
2017-01-06T01:15:28.531Z,0
2017-01-06T01:16:38.869Z,0
2017-01-06T01:17:49.859Z,0
2017-01-06T01:19:00.617Z,0
2017-01-06T01:20:10.558Z,0
2017-01-06T01:21:20.903Z,0
2017-01-06T01:22:31.244Z,0
2017-01-06T01:23:41.200Z,0
2017-01-06T01:24:51.536Z,0
2017-01-06T01:26:02.286Z,0
2017-01-06T01:27:12.634Z,0
2017-01-06T01:28:23.360Z,0
2017-01-06T01:29:34.087Z,0
2017-01-06T01:30:44.819Z,0
2017-01-06T01:31:55.175Z,0
2017-01-06T01:33:05.114Z,0
2017-01-06T01:34:15.853Z,0
2017-01-06T01:35:26.186Z,0
2017-01-06T01:36:36.536Z,0
2017-01-06T01:37:46.883Z,0
2017-01-06T01:38:57.652Z,0
2017-01-06T01:40:08.022Z,0
2017-01-06T01:41:18.759Z,0
2017-01-06T01:42:29.516Z,0
2017-01-06T01:43:40.264Z,0
2017-01-06T01:44:50.599Z,0
2017-01-06T01:46:00.938Z,0
2017-01-06T01:47:10.886Z,0
2017-01-06T01:48:21.231Z,0
2017-01-06T01:49:31.995Z,0
2017-01-06T01:50:41.942Z,0
2017-01-06T01:51:52.270Z,0
2017-01-06T01:53:03.002Z,0
2017-01-06T01:54:13.346Z,0
2017-01-06T01:55:24.318Z,0
2017-01-06T01:56:35.081Z,0
2017-01-06T01:57:45.082Z,0
2017-01-06T01:58:55.848Z,0
2017-01-06T02:00:06.580Z,0
2017-01-06T02:01:16.132Z,0
2017-01-06T02:02:26.464Z,0
2017-01-06T02:03:37.205Z,0
2017-01-06T02:04:47.150Z,0
2017-01-06T02:05:57.884Z,0
2017-01-06T02:07:08.216Z,0
2017-01-06T02:08:18.563Z,0
2017-01-06T02:09:29.299Z,0
2017-01-06T02:10:40.030Z,0
2017-01-06T02:11:49.972Z,0
2017-01-06T02:13:00.720Z,0
2017-01-06T02:14:10.660Z,0
2017-01-06T02:15:20.272Z,0
2017-01-06T02:16:30.613Z,0
2017-01-06T02:17:40.961Z,0
2017-01-06T02:18:51.283Z,0
2017-01-06T02:20:01.225Z,0
2017-01-06T02:21:11.951Z,0
2017-01-06T02:22:22.318Z,0
2017-01-06T02:23:32.261Z,0
2017-01-06T02:24:42.602Z,0
2017-01-06T02:25:52.949Z,0
2017-01-06T02:27:03.290Z,0
2017-01-06T02:28:14.031Z,0
2017-01-06T02:29:24.388Z,0
2017-01-06T02:30:34.733Z,0
2017-01-06T02:31:45.068Z,0
2017-01-06T02:32:55.003Z,0
2017-01-06T02:34:05.741Z,0
2017-01-06T02:35:16.095Z,0
2017-01-06T02:36:26.033Z,0
2017-01-06T02:37:36.367Z,0
2017-01-06T02:38:46.706Z,0
2017-01-06T02:39:57.447Z,0
2017-01-06T02:41:08.227Z,0
2017-01-06T02:42:18.943Z,0
2017-01-06T02:43:29.273Z,0
2017-01-06T02:44:39.219Z,0
2017-01-06T02:45:49.557Z,0
2017-01-06T02:46:59.899Z,0
2017-01-06T02:48:09.839Z,0
2017-01-06T02:49:20.179Z,0
2017-01-06T02:50:30.905Z,0
2017-01-06T02:51:41.243Z,0
2017-01-06T02:52:51.185Z,0
2017-01-06T02:54:01.522Z,0
2017-01-06T02:55:11.865Z,0
2017-01-06T02:56:21.797Z,0
2017-01-06T02:57:31.743Z,0
2017-01-06T02:58:42.489Z,0
2017-01-06T02:59:52.817Z,0
2017-01-06T03:01:03.151Z,0
2017-01-06T03:32:54.663Z,0
2017-01-06T03:34:04.586Z,0
2017-01-06T03:35:14.925Z,0
2017-01-06T03:36:25.283Z,0
2017-01-06T03:37:36.010Z,0
2017-01-06T03:38:46.356Z,0
2017-01-06T03:39:56.693Z,0
2017-01-06T03:41:07.031Z,0
2017-01-06T03:42:17.788Z,0
2017-01-06T03:43:28.503Z,0
2017-01-06T03:44:38.836Z,0
2017-01-06T03:45:49.577Z,0
2017-01-06T03:46:59.923Z,0
2017-01-06T03:48:10.665Z,0
2017-01-06T03:49:20.610Z,0
2017-01-06T03:50:30.953Z,0
2017-01-06T03:51:41.696Z,0
2017-01-06T03:52:52.438Z,0
2017-01-06T03:54:03.206Z,0
2017-01-06T03:55:13.939Z,0
2017-01-06T03:56:24.701Z,0
2017-01-06T03:57:35.444Z,0
2017-01-06T03:58:45.793Z,0
2017-01-06T03:59:56.133Z,0
2017-01-06T04:01:06.479Z,0
2017-01-06T04:02:16.821Z,0
2017-01-06T04:03:27.160Z,0
2017-01-06T04:04:37.486Z,0
2017-01-06T04:05:47.422Z,0
2017-01-06T04:06:57.765Z,0
2017-01-06T04:08:08.097Z,0
2017-01-06T04:09:18.048Z,0
2017-01-06T04:10:28.428Z,0
2017-01-06T04:11:39.159Z,0
2017-01-06T04:12:49.894Z,0
2017-01-06T04:14:00.248Z,0
2017-01-06T04:15:10.193Z,0
2017-01-06T04:16:20.530Z,0
2017-01-06T04:17:31.260Z,0
2017-01-06T04:18:41.603Z,0
2017-01-06T04:19:51.543Z,0
2017-01-06T04:21:02.287Z,0
2017-01-06T04:22:12.625Z,0
2017-01-06T04:23:22.997Z,0
2017-01-06T04:24:32.541Z,0
2017-01-06T04:25:42.486Z,0
2017-01-06T04:26:53.223Z,0
2017-01-06T04:28:03.560Z,0
2017-01-06T04:29:13.119Z,0
2017-01-06T04:30:23.854Z,0
2017-01-06T04:31:34.211Z,0
2017-01-06T04:32:44.558Z,0
2017-01-06T04:33:55.293Z,0
2017-01-06T04:35:05.634Z,0
2017-01-06T04:36:16.367Z,0
2017-01-06T04:37:27.103Z,0
2017-01-06T04:38:37.845Z,0
2017-01-06T04:39:48.617Z,0
2017-01-06T04:40:58.951Z,0
2017-01-06T04:42:09.291Z,0
2017-01-06T04:43:20.018Z,0
2017-01-06T04:44:30.368Z,0
2017-01-06T04:45:41.101Z,0
2017-01-06T04:46:51.828Z,0
2017-01-06T04:48:01.765Z,0
2017-01-06T04:49:12.101Z,0
2017-01-06T04:50:22.441Z,0
2017-01-06T04:51:32.378Z,0
2017-01-06T04:52:42.326Z,0
2017-01-06T04:53:53.058Z,0
2017-01-06T04:55:03.385Z,0
2017-01-06T04:56:14.119Z,0
2017-01-06T04:57:24.077Z,0
2017-01-06T04:58:34.810Z,0
2017-01-06T04:59:44.748Z,0
2017-01-06T05:00:55.483Z,0
2017-01-06T05:02:06.214Z,0
2017-01-06T05:03:16.166Z,0
2017-01-06T05:04:26.112Z,0
2017-01-06T05:05:36.449Z,0
2017-01-06T05:06:46.786Z,0
2017-01-06T05:07:57.117Z,0
2017-01-06T05:09:07.479Z,0
2017-01-06T05:10:17.846Z,0
2017-01-06T05:11:28.592Z,0
2017-01-06T05:12:38.939Z,0
2017-01-06T05:13:49.286Z,0
2017-01-06T05:14:59.625Z,0
2017-01-06T05:16:10.349Z,0
2017-01-06T05:17:21.086Z,0
2017-01-06T05:18:31.422Z,0
2017-01-06T05:19:42.155Z,0
2017-01-06T05:20:52.497Z,0
2017-01-06T05:22:02.838Z,0
2017-01-06T05:23:12.799Z,0
2017-01-06T05:24:23.554Z,0
2017-01-06T05:25:33.889Z,0
2017-01-06T05:26:44.232Z,0
2017-01-06T05:27:54.187Z,0
2017-01-06T05:29:04.943Z,0
2017-01-06T05:30:15.682Z,0
2017-01-06T05:31:26.427Z,0
2017-01-06T05:32:37.179Z,0
2017-01-06T05:33:47.916Z,0
2017-01-06T05:34:58.252Z,0
2017-01-06T05:36:07.811Z,0
2017-01-06T05:37:18.180Z,0
2017-01-06T05:38:28.514Z,0
2017-01-06T05:39:39.245Z,0
2017-01-06T05:40:49.606Z,0
2017-01-06T05:42:00.343Z,0
2017-01-06T05:43:10.290Z,0
2017-01-06T05:44:20.257Z,0
2017-01-06T05:45:30.994Z,0
2017-01-06T05:46:41.330Z,0
2017-01-06T05:47:51.680Z,0
2017-01-06T05:49:02.405Z,0
2017-01-06T05:50:12.346Z,0
2017-01-06T05:51:23.092Z,0
2017-01-06T05:52:33.817Z,0
2017-01-06T05:53:44.561Z,0
2017-01-06T05:54:55.291Z,0
2017-01-06T05:56:05.236Z,0
2017-01-06T05:57:15.585Z,0
2017-01-06T05:58:25.917Z,0
2017-01-06T05:59:35.465Z,0
2017-01-06T06:00:46.205Z,0
2017-01-06T06:01:56.538Z,0
2017-01-06T06:03:06.480Z,0
2017-01-06T06:04:16.828Z,0
2017-01-06T06:05:26.769Z,0
2017-01-06T06:06:37.505Z,0
2017-01-06T06:07:48.246Z,0
2017-01-06T06:08:58.577Z,0
2017-01-06T06:10:09.310Z,0
2017-01-06T06:11:20.040Z,0
2017-01-06T06:12:29.989Z,0
2017-01-06T06:13:39.929Z,0
2017-01-06T06:14:49.866Z,0
2017-01-06T06:16:00.248Z,0
2017-01-06T06:17:10.185Z,0
2017-01-06T06:18:20.536Z,0
2017-01-06T06:19:30.867Z,0
2017-01-06T06:20:41.643Z,0
2017-01-06T06:21:52.392Z,0
2017-01-06T06:23:02.732Z,0
2017-01-06T06:24:13.448Z,0
2017-01-06T06:25:23.812Z,0
2017-01-06T06:26:34.539Z,0
2017-01-06T06:27:44.874Z,0
2017-01-06T06:28:55.626Z,0
2017-01-06T06:30:06.373Z,0
2017-01-06T06:31:17.108Z,0
2017-01-06T06:32:27.438Z,0
2017-01-06T06:33:37.787Z,0
2017-01-06T06:34:47.724Z,0
2017-01-06T06:35:58.061Z,0
2017-01-06T06:37:08.788Z,0
2017-01-06T06:38:19.530Z,0
2017-01-06T06:39:30.265Z,0
2017-01-06T06:40:40.218Z,0
2017-01-06T06:41:50.570Z,0
2017-01-06T06:43:00.907Z,5
2017-01-06T06:44:11.644Z,5
2017-01-06T06:45:21.576Z,5
2017-01-06T06:46:31.920Z,5
2017-01-06T06:47:42.286Z,5
2017-01-06T06:48:53.024Z,5
2017-01-06T06:50:03.771Z,10
2017-01-06T06:51:14.112Z,10
2017-01-06T06:52:24.873Z,10
2017-01-06T06:53:35.216Z,10
2017-01-06T06:54:45.167Z,15
2017-01-06T06:55:55.901Z,15
2017-01-06T06:57:06.243Z,15
2017-01-06T06:58:16.198Z,15
2017-01-06T06:59:26.570Z,20
2017-01-06T07:00:37.330Z,20
2017-01-06T07:01:47.677Z,20
2017-01-06T07:02:58.425Z,20
2017-01-06T07:04:09.160Z,20
2017-01-06T07:05:19.897Z,20
2017-01-06T07:06:30.635Z,20
2017-01-06T07:07:41.386Z,25
2017-01-06T07:08:52.124Z,30
2017-01-06T07:10:02.524Z,30
2017-01-06T07:11:13.269Z,30
2017-01-06T07:12:23.216Z,30
2017-01-06T07:13:33.958Z,35
2017-01-06T07:14:44.701Z,35
2017-01-06T07:15:55.075Z,40
2017-01-06T07:17:05.813Z,40
2017-01-06T07:18:16.551Z,40
2017-01-06T07:19:26.890Z,40
2017-01-06T07:20:37.632Z,40
2017-01-06T07:21:48.360Z,40
2017-01-06T07:22:58.721Z,45
2017-01-06T07:24:09.057Z,45
2017-01-06T07:25:19.405Z,45
2017-01-06T07:26:30.140Z,50
2017-01-06T07:27:40.495Z,50
2017-01-06T07:28:50.845Z,50
2017-01-06T07:30:01.592Z,50
2017-01-06T07:31:11.927Z,55
2017-01-06T07:32:22.271Z,55
2017-01-06T07:33:32.231Z,55
2017-01-06T07:34:42.959Z,60
2017-01-06T07:35:53.290Z,60
2017-01-06T07:37:03.646Z,60
2017-01-06T07:38:14.384Z,60
2017-01-06T07:39:24.725Z,65
2017-01-06T07:40:34.669Z,65
2017-01-06T07:41:44.615Z,65
2017-01-06T07:42:54.950Z,70
2017-01-06T07:44:05.303Z,70
2017-01-06T07:45:15.628Z,75
2017-01-06T07:46:25.965Z,75
2017-01-06T07:47:36.313Z,75
2017-01-06T07:48:47.045Z,75
2017-01-06T07:49:57.384Z,75
2017-01-06T07:51:08.126Z,80
2017-01-06T07:52:18.871Z,80
2017-01-06T07:53:29.605Z,85
2017-01-06T07:54:40.343Z,85
2017-01-06T07:55:51.063Z,90
2017-01-06T07:57:01.404Z,95
2017-01-06T07:58:12.131Z,95
2017-01-06T07:59:22.878Z,100
2017-01-06T08:00:33.217Z,100
2017-01-06T08:01:43.555Z,105
2017-01-06T08:02:54.276Z,110
2017-01-06T08:04:04.640Z,115
2017-01-06T08:05:15.387Z,110
2017-01-06T08:06:26.122Z,105
2017-01-06T08:07:36.862Z,105
2017-01-06T08:08:46.798Z,105
2017-01-06T08:09:56.736Z,105
2017-01-06T08:11:06.676Z,105
2017-01-06T08:12:16.232Z,100
2017-01-06T08:13:26.572Z,105
2017-01-06T08:14:36.120Z,105
2017-01-06T08:15:46.855Z,105
2017-01-06T08:16:57.195Z,105
2017-01-06T08:18:07.133Z,115
2017-01-06T08:19:17.074Z,115
2017-01-06T08:20:27.410Z,120
2017-01-06T08:21:38.171Z,130
2017-01-06T08:22:48.909Z,135
2017-01-06T08:23:59.667Z,130
2017-01-06T08:25:10.038Z,130
2017-01-06T08:26:20.408Z,130
2017-01-06T08:27:30.742Z,120
2017-01-06T08:28:41.497Z,120
2017-01-06T08:29:52.254Z,120
2017-01-06T08:31:02.612Z,120
2017-01-06T08:32:13.383Z,125
2017-01-06T08:33:24.134Z,125
2017-01-06T08:34:34.880Z,125
2017-01-06T08:35:45.628Z,125
2017-01-06T08:36:55.964Z,135
2017-01-06T08:38:06.703Z,135
2017-01-06T08:39:17.072Z,130
2017-01-06T08:40:27.806Z,90
2017-01-06T08:41:38.536Z,95
2017-01-06T08:42:48.082Z,105
2017-01-06T08:43:58.925Z,115
2017-01-06T08:45:09.271Z,100
2017-01-06T08:46:19.614Z,145
2017-01-06T08:47:29.955Z,105
2017-01-06T08:48:40.692Z,150
2017-01-06T08:49:50.640Z,135
2017-01-06T08:51:01.390Z,155
2017-01-06T08:52:11.346Z,155
2017-01-06T08:53:22.099Z,150
2017-01-06T08:54:32.441Z,150
2017-01-06T08:55:42.414Z,150
2017-01-06T08:56:53.149Z,110
2017-01-06T08:58:03.512Z,105
2017-01-06T08:59:13.873Z,135
2017-01-06T09:00:24.611Z,120
2017-01-06T09:01:34.967Z,145
2017-01-06T09:02:45.689Z,155
2017-01-06T09:03:56.030Z,155
2017-01-06T09:05:06.772Z,155
2017-01-06T09:06:17.137Z,150
2017-01-06T09:07:27.485Z,140
2017-01-06T09:08:38.223Z,120
2017-01-06T09:09:47.814Z,155
2017-01-06T09:10:58.170Z,145
2017-01-06T09:12:08.923Z,95
2017-01-06T09:13:19.664Z,95
2017-01-06T09:14:29.607Z,90
2017-01-06T09:15:39.947Z,90
2017-01-06T09:16:49.898Z,90
2017-01-06T09:18:00.227Z,90
2017-01-06T09:19:10.993Z,95
2017-01-06T09:20:20.935Z,95
2017-01-06T09:21:30.880Z,100
2017-01-06T09:22:41.224Z,95
2017-01-06T09:23:51.171Z,145
2017-01-06T09:25:01.508Z,180
2017-01-06T09:26:11.853Z,180
2017-01-06T09:27:22.203Z,185
2017-01-06T09:28:32.942Z,180
2017-01-06T09:29:42.910Z,180
2017-01-06T09:30:53.325Z,175
2017-01-06T09:32:03.672Z,170
2017-01-06T09:33:13.632Z,175
2017-01-06T09:34:24.367Z,165
2017-01-06T09:35:35.097Z,160
2017-01-06T09:36:45.450Z,180
2017-01-06T09:37:55.799Z,175
2017-01-06T09:39:06.159Z,195
2017-01-06T09:40:16.502Z,185
2017-01-06T09:41:26.077Z,130
2017-01-06T09:42:36.829Z,185
2017-01-06T09:43:47.578Z,180
2017-01-06T09:44:58.310Z,175
2017-01-06T09:46:08.650Z,150
2017-01-06T09:47:19.406Z,170
2017-01-06T09:48:30.143Z,190
2017-01-06T09:49:40.878Z,190
2017-01-06T09:50:51.621Z,200
2017-01-06T09:52:01.967Z,195
2017-01-06T09:53:12.726Z,195
2017-01-06T09:54:22.670Z,205
2017-01-06T09:55:33.039Z,205
2017-01-06T09:56:43.385Z,175
2017-01-06T09:57:53.739Z,135
2017-01-06T09:59:03.698Z,195
2017-01-06T10:00:14.059Z,165
2017-01-06T10:01:24.413Z,185
2017-01-06T10:02:34.760Z,185
2017-01-06T10:03:45.100Z,205
2017-01-06T10:04:55.448Z,215
2017-01-06T10:06:05.835Z,210
2017-01-06T10:07:16.186Z,205
2017-01-06T10:08:26.915Z,120
2017-01-06T10:09:37.659Z,120
2017-01-06T10:10:47.994Z,220
2017-01-06T10:11:58.746Z,215
2017-01-06T10:13:09.493Z,205
2017-01-06T10:14:19.845Z,205
2017-01-06T10:15:30.195Z,205
2017-01-06T10:16:40.532Z,205
2017-01-06T10:17:50.875Z,215
2017-01-06T10:19:01.218Z,210
2017-01-06T10:20:11.957Z,210
2017-01-06T10:21:22.701Z,200
2017-01-06T10:22:33.041Z,190
2017-01-06T10:23:43.785Z,195
2017-01-06T10:24:53.743Z,195
2017-01-06T10:26:04.106Z,105
2017-01-06T10:27:14.449Z,195
2017-01-06T10:28:24.821Z,195
2017-01-06T10:29:35.562Z,195
2017-01-06T10:30:45.917Z,210
2017-01-06T10:31:56.646Z,205
2017-01-06T10:33:07.402Z,220
2017-01-06T10:34:17.748Z,235
2017-01-06T10:35:28.095Z,235
2017-01-06T10:36:38.432Z,240
2017-01-06T10:37:49.179Z,225
2017-01-06T10:38:59.535Z,160
2017-01-06T10:40:10.290Z,205
2017-01-06T10:41:21.047Z,215
2017-01-06T10:42:31.003Z,145
2017-01-06T10:43:41.377Z,185
2017-01-06T10:44:52.135Z,140
2017-01-06T10:46:02.090Z,110
2017-01-06T10:47:12.823Z,95
2017-01-06T10:48:23.595Z,90
2017-01-06T10:49:34.338Z,175
2017-01-06T10:50:45.103Z,90
2017-01-06T10:51:55.874Z,100
2017-01-06T10:53:06.614Z,110
2017-01-06T10:54:16.595Z,110
2017-01-06T10:55:26.932Z,95
2017-01-06T10:56:37.267Z,115
2017-01-06T10:57:47.614Z,125
2017-01-06T10:58:58.349Z,135
2017-01-06T11:00:08.722Z,115
2017-01-06T11:01:19.091Z,115
2017-01-06T11:02:29.855Z,115
2017-01-06T11:03:40.598Z,115
2017-01-06T11:04:50.946Z,110
2017-01-06T11:06:01.283Z,110
2017-01-06T11:07:12.034Z,110
2017-01-06T11:08:22.788Z,115
2017-01-06T11:09:33.128Z,110
2017-01-06T11:10:43.878Z,110
2017-01-06T11:11:54.261Z,105
2017-01-06T11:13:04.215Z,110
2017-01-06T11:14:14.958Z,120
2017-01-06T11:15:25.706Z,130
2017-01-06T11:16:36.047Z,155
2017-01-06T11:17:46.779Z,125
2017-01-06T11:18:57.145Z,125
2017-01-06T11:20:07.937Z,130
2017-01-06T11:21:18.271Z,145
2017-01-06T11:22:29.017Z,115
2017-01-06T11:23:39.762Z,225
2017-01-06T11:24:50.499Z,185
2017-01-06T11:26:00.866Z,205
2017-01-06T11:27:11.617Z,215
2017-01-06T11:28:22.354Z,225
2017-01-06T11:29:33.096Z,150
2017-01-06T11:30:43.827Z,125
2017-01-06T11:31:53.410Z,130
2017-01-06T11:33:03.778Z,120
2017-01-06T11:34:14.129Z,120
2017-01-06T11:35:24.882Z,245
2017-01-06T11:36:35.612Z,130
2017-01-06T11:37:46.345Z,125
2017-01-06T11:38:57.087Z,130
2017-01-06T11:40:07.452Z,235
2017-01-06T11:41:18.190Z,195
2017-01-06T11:42:28.530Z,125
2017-01-06T11:43:39.277Z,220
2017-01-06T11:44:50.014Z,135
2017-01-06T11:46:00.754Z,130
2017-01-06T11:47:11.501Z,105
2017-01-06T11:48:22.239Z,95
2017-01-06T11:49:32.595Z,95
2017-01-06T11:50:42.542Z,105
2017-01-06T11:51:53.294Z,100
2017-01-06T11:53:03.258Z,95
2017-01-06T11:54:13.680Z,105
2017-01-06T11:55:24.417Z,110
2017-01-06T11:56:35.140Z,110
2017-01-06T11:57:45.863Z,120
2017-01-06T11:58:56.595Z,115
2017-01-06T12:00:06.930Z,125
2017-01-06T12:01:17.307Z,120
2017-01-06T12:02:27.668Z,125
2017-01-06T12:03:38.036Z,110
2017-01-06T12:04:48.791Z,105
2017-01-06T12:05:59.124Z,105
2017-01-06T12:07:09.866Z,100
2017-01-06T12:08:20.640Z,105
2017-01-06T12:09:31.373Z,100
2017-01-06T12:10:41.710Z,95
2017-01-06T12:11:52.435Z,100
2017-01-06T12:13:02.372Z,85
2017-01-06T12:14:13.104Z,90
2017-01-06T12:15:23.840Z,95
2017-01-06T12:16:34.581Z,100
2017-01-06T12:17:45.337Z,100
2017-01-06T12:18:55.690Z,105
2017-01-06T12:20:06.422Z,105
2017-01-06T12:21:17.168Z,100
2017-01-06T12:22:27.506Z,105
2017-01-06T12:23:38.241Z,100
2017-01-06T12:24:48.588Z,250
2017-01-06T12:25:58.950Z,140
2017-01-06T12:27:09.679Z,135
2017-01-06T12:28:20.029Z,380
2017-01-06T12:29:29.985Z,280
2017-01-06T12:30:40.332Z,340
2017-01-06T12:31:51.068Z,360
2017-01-06T12:33:01.411Z,380
2017-01-06T12:34:12.146Z,215
2017-01-06T12:35:22.494Z,105
2017-01-06T12:36:33.217Z,110
2017-01-06T12:37:44.031Z,115
2017-01-06T12:38:54.758Z,115
2017-01-06T12:40:05.502Z,115
2017-01-06T12:41:16.258Z,115
2017-01-06T12:42:26.615Z,120
2017-01-06T12:43:37.356Z,110
2017-01-06T12:44:47.717Z,110
2017-01-06T12:45:58.056Z,110
2017-01-06T12:47:08.813Z,110
2017-01-06T12:48:19.170Z,105
2017-01-06T12:49:29.517Z,100
2017-01-06T12:50:39.884Z,100
2017-01-06T12:51:50.632Z,90
2017-01-06T12:53:01.005Z,90
2017-01-06T12:54:11.771Z,95
2017-01-06T12:55:22.132Z,100
2017-01-06T12:56:32.102Z,110
2017-01-06T12:57:42.458Z,115
2017-01-06T12:58:53.203Z,165
2017-01-06T13:00:03.935Z,190
2017-01-06T13:01:14.287Z,170
2017-01-06T13:02:24.228Z,135
2017-01-06T13:03:33.781Z,105
2017-01-06T13:04:44.506Z,95
2017-01-06T13:05:54.849Z,85
2017-01-06T13:07:05.203Z,75
2017-01-06T13:08:15.547Z,75
2017-01-06T13:09:26.282Z,75
2017-01-06T13:10:37.041Z,70
2017-01-06T13:11:47.792Z,70
2017-01-06T13:12:58.144Z,70
2017-01-06T13:14:08.491Z,75
2017-01-06T13:15:19.223Z,70
2017-01-06T13:16:29.166Z,70
2017-01-06T13:17:39.906Z,70
2017-01-06T13:18:49.848Z,65
2017-01-06T13:20:00.613Z,65
2017-01-06T13:21:11.346Z,70
2017-01-06T13:22:21.713Z,70
2017-01-06T13:23:32.470Z,75
2017-01-06T13:24:42.811Z,75
2017-01-06T13:25:53.173Z,80
2017-01-06T13:27:03.549Z,85
2017-01-06T13:28:13.506Z,85
2017-01-06T13:29:24.255Z,80
2017-01-06T13:30:34.229Z,80
2017-01-06T13:31:44.576Z,75
2017-01-06T13:32:54.914Z,75
2017-01-06T13:34:04.864Z,65
2017-01-06T13:35:15.191Z,65
2017-01-06T13:36:25.933Z,65
2017-01-06T13:37:36.666Z,55
2017-01-06T13:38:47.424Z,45
2017-01-06T13:39:57.388Z,50
2017-01-06T13:41:08.127Z,50
2017-01-06T13:42:18.484Z,45
2017-01-06T13:43:28.821Z,45
2017-01-06T13:44:39.164Z,50
2017-01-06T13:45:49.513Z,55
2017-01-06T13:47:00.245Z,55
2017-01-06T13:48:10.596Z,65
2017-01-06T13:49:21.411Z,65
2017-01-06T13:50:32.151Z,60
2017-01-06T13:51:42.891Z,55
2017-01-06T13:52:53.629Z,50
2017-01-06T13:54:03.992Z,50
2017-01-06T13:55:14.803Z,50
2017-01-06T13:56:25.568Z,50
2017-01-06T13:57:35.930Z,50
2017-01-06T13:58:46.273Z,50
2017-01-06T13:59:56.214Z,50
2017-01-06T14:01:06.948Z,40
2017-01-06T14:02:17.682Z,35
2017-01-06T14:03:28.033Z,40
2017-01-06T14:04:38.370Z,40
2017-01-06T14:05:48.309Z,40
2017-01-06T14:06:58.260Z,35
2017-01-06T14:08:08.601Z,40
2017-01-06T14:09:18.947Z,40
2017-01-06T14:10:29.711Z,40
2017-01-06T14:11:40.060Z,40
2017-01-06T14:12:50.418Z,40
2017-01-06T14:14:00.378Z,35
2017-01-06T14:15:11.120Z,30
2017-01-06T14:16:21.482Z,25
2017-01-06T14:17:31.438Z,30
2017-01-06T14:18:41.816Z,30
2017-01-06T14:19:52.167Z,35
2017-01-06T14:21:02.908Z,40
2017-01-06T14:22:13.666Z,40
2017-01-06T14:23:24.008Z,40
2017-01-06T14:24:34.354Z,40
2017-01-06T14:25:44.696Z,40
2017-01-06T14:26:54.637Z,40
2017-01-06T14:28:05.373Z,40
2017-01-06T14:29:15.325Z,40
2017-01-06T14:30:25.684Z,45
2017-01-06T14:31:36.415Z,40
2017-01-06T14:32:47.142Z,45
2017-01-06T14:33:57.103Z,35
2017-01-06T14:35:07.837Z,25
2017-01-06T14:36:18.182Z,20
2017-01-06T14:37:28.520Z,15
2017-01-06T14:38:38.846Z,10
2017-01-06T14:39:49.184Z,10
2017-01-06T14:40:59.539Z,15
2017-01-06T14:42:09.884Z,15
2017-01-06T14:43:19.449Z,15
2017-01-06T14:44:29.803Z,20
2017-01-06T14:45:40.556Z,20
2017-01-06T14:46:50.923Z,20
2017-01-06T14:48:01.314Z,20
2017-01-06T14:49:12.053Z,20
2017-01-06T14:50:22.784Z,20
2017-01-06T14:51:33.130Z,20
2017-01-06T14:52:43.489Z,15
2017-01-06T14:53:54.220Z,15
2017-01-06T14:55:04.561Z,15
2017-01-06T14:56:15.336Z,10
2017-01-06T14:57:25.664Z,10
2017-01-06T14:58:36.010Z,5
2017-01-06T14:59:45.568Z,5
2017-01-06T15:00:55.904Z,5
2017-01-06T15:02:06.244Z,0
2017-01-06T15:03:16.212Z,0
2017-01-06T15:04:26.953Z,0
2017-01-06T15:05:37.700Z,0
2017-01-06T15:06:48.447Z,0
2017-01-06T15:07:58.804Z,0
2017-01-06T15:09:09.545Z,0
2017-01-06T15:10:19.912Z,0
2017-01-06T15:11:30.663Z,0
2017-01-06T15:12:41.392Z,0
2017-01-06T15:13:52.147Z,0
2017-01-06T15:15:02.489Z,0
2017-01-06T15:16:12.435Z,0
2017-01-06T15:17:23.200Z,0
2017-01-06T15:18:33.543Z,0
2017-01-06T15:19:43.885Z,0
2017-01-06T15:20:54.237Z,0
2017-01-06T15:22:04.198Z,0
2017-01-06T15:23:14.541Z,0
2017-01-06T15:24:24.496Z,0
2017-01-06T15:25:35.243Z,0
2017-01-06T15:26:45.972Z,0
2017-01-06T15:27:56.327Z,0
2017-01-06T15:29:06.673Z,0
2017-01-06T15:30:17.422Z,0
2017-01-06T15:31:28.152Z,0
2017-01-06T15:32:38.497Z,0
2017-01-06T15:33:48.837Z,0
2017-01-06T15:34:59.574Z,0
2017-01-06T15:36:09.947Z,0
2017-01-06T15:37:20.700Z,0
2017-01-06T15:38:31.451Z,0
2017-01-06T15:39:41.828Z,0
2017-01-06T15:40:52.181Z,0
2017-01-06T15:42:02.971Z,0
2017-01-06T15:43:13.743Z,0
2017-01-06T15:44:24.492Z,0
2017-01-06T15:45:34.848Z,0
2017-01-06T15:46:45.264Z,0
2017-01-06T15:47:56.016Z,0
2017-01-06T15:49:06.763Z,0
2017-01-06T15:50:17.106Z,0
2017-01-06T15:51:27.061Z,0
2017-01-06T15:52:37.428Z,0
2017-01-06T15:53:48.190Z,0
2017-01-06T15:54:58.956Z,0
2017-01-06T15:56:09.328Z,0
2017-01-06T15:57:19.304Z,0
2017-01-06T15:58:29.241Z,0
2017-01-06T15:59:39.970Z,0
2017-01-06T16:00:50.713Z,0
2017-01-06T16:02:01.472Z,0
2017-01-06T16:03:11.829Z,0
2017-01-06T16:04:22.574Z,0
2017-01-06T16:05:32.943Z,0
2017-01-06T16:06:43.310Z,0
2017-01-06T16:07:54.075Z,0
2017-01-06T16:09:04.827Z,0
2017-01-06T16:10:15.563Z,0
2017-01-06T16:11:26.298Z,0
2017-01-06T16:12:37.063Z,0
2017-01-06T16:13:47.419Z,0
2017-01-06T16:14:58.171Z,0
2017-01-06T16:16:08.773Z,0
2017-01-06T16:17:19.514Z,0
2017-01-06T16:18:29.465Z,0
2017-01-06T16:19:39.863Z,0
2017-01-06T16:20:50.624Z,0
2017-01-06T16:22:00.958Z,0
2017-01-06T16:23:11.303Z,0
2017-01-06T16:24:22.044Z,0
2017-01-06T16:25:32.387Z,0
2017-01-06T16:26:42.334Z,0
2017-01-06T16:27:52.681Z,0
2017-01-06T16:29:02.642Z,0
2017-01-06T16:30:12.994Z,0
2017-01-06T16:31:23.717Z,0
2017-01-06T16:32:34.444Z,0
2017-01-06T16:33:45.175Z,0
2017-01-06T16:34:55.917Z,0
2017-01-06T16:36:06.277Z,0
2017-01-06T16:37:16.616Z,0
2017-01-06T16:38:26.971Z,0
2017-01-06T16:39:37.310Z,0
2017-01-06T16:40:48.047Z,0
2017-01-06T16:41:58.804Z,0
2017-01-06T16:43:09.149Z,0
2017-01-06T16:44:19.905Z,0
2017-01-06T16:45:30.275Z,0
2017-01-06T16:46:41.005Z,0
2017-01-06T16:47:51.747Z,0
2017-01-06T16:49:02.093Z,0
2017-01-06T16:50:12.840Z,0
2017-01-06T16:51:23.187Z,0
2017-01-06T16:52:33.931Z,0
2017-01-06T16:53:44.673Z,0
2017-01-06T16:54:54.627Z,0
2017-01-06T16:56:05.369Z,0
2017-01-06T16:57:15.711Z,0
2017-01-06T16:58:26.478Z,0
2017-01-06T16:59:36.819Z,0
2017-01-06T17:00:47.171Z,0
2017-01-06T17:01:57.504Z,0
2017-01-06T17:03:07.843Z,0
2017-01-06T17:04:18.568Z,0
2017-01-06T17:05:28.934Z,0
2017-01-06T17:06:39.671Z,0
2017-01-06T17:07:50.028Z,0
2017-01-06T17:09:00.767Z,0
2017-01-06T17:10:11.125Z,0
2017-01-06T17:11:21.863Z,0
2017-01-06T17:12:32.608Z,0
2017-01-06T17:13:42.960Z,0
2017-01-06T17:14:53.683Z,0
2017-01-06T17:16:04.432Z,0
2017-01-06T17:17:14.768Z,0
2017-01-06T17:18:25.148Z,0
2017-01-06T17:19:35.106Z,0
2017-01-06T17:20:45.056Z,0
2017-01-06T17:21:55.818Z,0
2017-01-06T17:23:06.560Z,0
2017-01-06T17:24:16.896Z,0